sensor_id;sensor_type;location;lat;lon;timestamp;temperature;humidity
74540;SHT31;66042;51.090;-115.340;2022-12-29T00:00:17;0.73;72.42
74540;SHT31;66042;51.090;-115.340;2022-12-29T00:02:45;0.68;72.69
74540;SHT31;66042;51.090;-115.340;2022-12-29T00:05:11;0.64;72.72
74540;SHT31;66042;51.090;-115.340;2022-12-29T00:07:38;0.58;72.62
74540;SHT31;66042;51.090;-115.340;2022-12-29T00:10:05;0.54;72.75
74540;SHT31;66042;51.090;-115.340;2022-12-29T00:12:33;0.50;73.02
74540;SHT31;66042;51.090;-115.340;2022-12-29T00:15:18;0.45;73.18
74540;SHT31;66042;51.090;-115.340;2022-12-29T00:18:04;0.44;73.40
74540;SHT31;66042;51.090;-115.340;2022-12-29T00:20:36;0.39;73.30
74540;SHT31;66042;51.090;-115.340;2022-12-29T00:23:21;0.30;73.20
74540;SHT31;66042;51.090;-115.340;2022-12-29T00:26:12;0.25;73.45
74540;SHT31;66042;51.090;-115.340;2022-12-29T00:29:01;0.21;73.48
74540;SHT31;66042;51.090;-115.340;2022-12-29T00:31:47;0.19;73.58
74540;SHT31;66042;51.090;-115.340;2022-12-29T00:34:32;0.17;73.28
74540;SHT31;66042;51.090;-115.340;2022-12-29T00:37:17;0.18;73.42
74540;SHT31;66042;51.090;-115.340;2022-12-29T00:40:04;0.19;73.55
74540;SHT31;66042;51.090;-115.340;2022-12-29T00:42:49;0.18;73.32
74540;SHT31;66042;51.090;-115.340;2022-12-29T00:45:34;0.16;73.35
74540;SHT31;66042;51.090;-115.340;2022-12-29T00:48:01;0.17;73.57
74540;SHT31;66042;51.090;-115.340;2022-12-29T00:50:28;0.17;73.42
74540;SHT31;66042;51.090;-115.340;2022-12-29T00:52:55;0.15;73.58
74540;SHT31;66042;51.090;-115.340;2022-12-29T00:55:22;0.14;73.89
74540;SHT31;66042;51.090;-115.340;2022-12-29T00:57:49;0.11;73.90
74540;SHT31;66042;51.090;-115.340;2022-12-29T01:00:16;0.10;73.85
74540;SHT31;66042;51.090;-115.340;2022-12-29T01:02:43;0.11;73.66
74540;SHT31;66042;51.090;-115.340;2022-12-29T01:05:09;0.05;73.64
74540;SHT31;66042;51.090;-115.340;2022-12-29T01:07:36;0.02;73.93
74540;SHT31;66042;51.090;-115.340;2022-12-29T01:10:03;-0.01;74.02
74540;SHT31;66042;51.090;-115.340;2022-12-29T01:12:36;-0.03;74.22
74540;SHT31;66042;51.090;-115.340;2022-12-29T01:15:08;-0.07;74.27
74540;SHT31;66042;51.090;-115.340;2022-12-29T01:17:37;-0.09;74.15
74540;SHT31;66042;51.090;-115.340;2022-12-29T01:20:04;-0.11;74.26
74540;SHT31;66042;51.090;-115.340;2022-12-29T01:22:32;-0.15;74.43
74540;SHT31;66042;51.090;-115.340;2022-12-29T01:24:59;-0.15;74.50
74540;SHT31;66042;51.090;-115.340;2022-12-29T01:27:25;-0.16;74.43
74540;SHT31;66042;51.090;-115.340;2022-12-29T01:29:53;-0.18;74.61
74540;SHT31;66042;51.090;-115.340;2022-12-29T01:32:20;-0.15;74.66
74540;SHT31;66042;51.090;-115.340;2022-12-29T01:34:47;-0.16;74.60
74540;SHT31;66042;51.090;-115.340;2022-12-29T01:37:14;-0.13;74.60
74540;SHT31;66042;51.090;-115.340;2022-12-29T01:39:42;-0.11;74.46
74540;SHT31;66042;51.090;-115.340;2022-12-29T01:42:19;-0.13;74.50
74540;SHT31;66042;51.090;-115.340;2022-12-29T01:44:52;-0.12;74.50
74540;SHT31;66042;51.090;-115.340;2022-12-29T01:47:30;-0.14;74.47
74540;SHT31;66042;51.090;-115.340;2022-12-29T01:50:05;-0.23;74.17
74540;SHT31;66042;51.090;-115.340;2022-12-29T01:52:49;-0.29;74.27
74540;SHT31;66042;51.090;-115.340;2022-12-29T01:55:51;-0.35;74.49
74540;SHT31;66042;51.090;-115.340;2022-12-29T01:58:26;-0.40;74.54
74540;SHT31;66042;51.090;-115.340;2022-12-29T02:00:59;-0.45;74.60
74540;SHT31;66042;51.090;-115.340;2022-12-29T02:03:27;-0.49;74.64
74540;SHT31;66042;51.090;-115.340;2022-12-29T02:08:40;-0.62;74.81
74540;SHT31;66042;51.090;-115.340;2022-12-29T02:11:11;-0.68;74.79
74540;SHT31;66042;51.090;-115.340;2022-12-29T02:13:39;-0.74;74.65
74540;SHT31;66042;51.090;-115.340;2022-12-29T02:16:09;-0.78;74.67
74540;SHT31;66042;51.090;-115.340;2022-12-29T02:19:44;-0.87;74.84
74540;SHT31;66042;51.090;-115.340;2022-12-29T02:22:45;-0.92;74.81
74540;SHT31;66042;51.090;-115.340;2022-12-29T02:32:05;-1.08;74.84
74540;SHT31;66042;51.090;-115.340;2022-12-29T02:46:45;-1.10;74.85
74540;SHT31;66042;51.090;-115.340;2022-12-29T02:49:58;-1.11;74.99
74540;SHT31;66042;51.090;-115.340;2022-12-29T02:52:39;-1.14;75.05
74540;SHT31;66042;51.090;-115.340;2022-12-29T02:55:33;-1.15;75.10
74540;SHT31;66042;51.090;-115.340;2022-12-29T02:58:33;-1.18;75.10
74540;SHT31;66042;51.090;-115.340;2022-12-29T03:07:01;-1.32;75.32
74540;SHT31;66042;51.090;-115.340;2022-12-29T03:09:59;-1.37;75.30
74540;SHT31;66042;51.090;-115.340;2022-12-29T03:16:16;-1.43;75.60
74540;SHT31;66042;51.090;-115.340;2022-12-29T03:19:13;-1.45;75.57
74540;SHT31;66042;51.090;-115.340;2022-12-29T03:22:15;-1.52;75.53
74540;SHT31;66042;51.090;-115.340;2022-12-29T03:27:41;-1.51;75.87
74540;SHT31;66042;51.090;-115.340;2022-12-29T03:30:16;-1.51;75.85
74540;SHT31;66042;51.090;-115.340;2022-12-29T03:32:46;-1.48;76.03
74540;SHT31;66042;51.090;-115.340;2022-12-29T03:35:21;-1.45;75.90
74540;SHT31;66042;51.090;-115.340;2022-12-29T03:38:02;-1.41;75.82
74540;SHT31;66042;51.090;-115.340;2022-12-29T03:40:40;-1.34;75.80
74540;SHT31;66042;51.090;-115.340;2022-12-29T03:43:14;-1.30;75.84
74540;SHT31;66042;51.090;-115.340;2022-12-29T03:45:42;-1.26;75.88
74540;SHT31;66042;51.090;-115.340;2022-12-29T03:48:09;-1.23;75.89
74540;SHT31;66042;51.090;-115.340;2022-12-29T03:50:36;-1.22;75.98
74540;SHT31;66042;51.090;-115.340;2022-12-29T03:53:03;-1.21;75.96
74540;SHT31;66042;51.090;-115.340;2022-12-29T03:55:31;-1.21;75.90
74540;SHT31;66042;51.090;-115.340;2022-12-29T03:57:58;-1.21;76.01
74540;SHT31;66042;51.090;-115.340;2022-12-29T04:00:24;-1.23;76.09
74540;SHT31;66042;51.090;-115.340;2022-12-29T04:02:51;-1.25;76.09
74540;SHT31;66042;51.090;-115.340;2022-12-29T04:05:18;-1.28;76.07
74540;SHT31;66042;51.090;-115.340;2022-12-29T04:07:45;-1.31;75.99
74540;SHT31;66042;51.090;-115.340;2022-12-29T04:10:12;-1.34;76.04
74540;SHT31;66042;51.090;-115.340;2022-12-29T04:12:39;-1.37;76.21
74540;SHT31;66042;51.090;-115.340;2022-12-29T04:15:07;-1.40;76.29
74540;SHT31;66042;51.090;-115.340;2022-12-29T04:17:35;-1.39;76.49
74540;SHT31;66042;51.090;-115.340;2022-12-29T04:20:02;-1.40;76.65
74540;SHT31;66042;51.090;-115.340;2022-12-29T04:22:49;-1.39;76.50
74540;SHT31;66042;51.090;-115.340;2022-12-29T04:25:24;-1.36;76.56
74540;SHT31;66042;51.090;-115.340;2022-12-29T04:27:51;-1.29;76.63
74540;SHT31;66042;51.090;-115.340;2022-12-29T04:30:18;-1.26;76.50
74540;SHT31;66042;51.090;-115.340;2022-12-29T04:32:45;-1.28;76.41
74540;SHT31;66042;51.090;-115.340;2022-12-29T04:35:12;-1.30;76.33
74540;SHT31;66042;51.090;-115.340;2022-12-29T04:37:39;-1.30;76.30
74540;SHT31;66042;51.090;-115.340;2022-12-29T04:40:06;-1.30;76.21
74540;SHT31;66042;51.090;-115.340;2022-12-29T04:42:34;-1.32;76.21
74540;SHT31;66042;51.090;-115.340;2022-12-29T04:45:01;-1.34;76.24
74540;SHT31;66042;51.090;-115.340;2022-12-29T04:47:28;-1.37;76.20
74540;SHT31;66042;51.090;-115.340;2022-12-29T04:49:55;-1.44;76.20
74540;SHT31;66042;51.090;-115.340;2022-12-29T04:52:22;-1.50;76.35
74540;SHT31;66042;51.090;-115.340;2022-12-29T04:54:50;-1.52;76.38
74540;SHT31;66042;51.090;-115.340;2022-12-29T04:57:17;-1.55;76.40
74540;SHT31;66042;51.090;-115.340;2022-12-29T04:59:44;-1.58;76.43
74540;SHT31;66042;51.090;-115.340;2022-12-29T05:02:11;-1.63;76.63
74540;SHT31;66042;51.090;-115.340;2022-12-29T05:04:38;-1.65;76.70
74540;SHT31;66042;51.090;-115.340;2022-12-29T05:07:05;-1.68;76.70
74540;SHT31;66042;51.090;-115.340;2022-12-29T05:09:32;-1.72;76.73
74540;SHT31;66042;51.090;-115.340;2022-12-29T05:12:00;-1.78;76.83
74540;SHT31;66042;51.090;-115.340;2022-12-29T05:14:27;-1.82;76.99
74540;SHT31;66042;51.090;-115.340;2022-12-29T05:16:54;-1.85;77.04
74540;SHT31;66042;51.090;-115.340;2022-12-29T05:19:21;-1.86;76.90
74540;SHT31;66042;51.090;-115.340;2022-12-29T05:21:47;-1.86;76.92
74540;SHT31;66042;51.090;-115.340;2022-12-29T05:24:14;-1.83;76.98
74540;SHT31;66042;51.090;-115.340;2022-12-29T05:26:41;-1.81;76.95
74540;SHT31;66042;51.090;-115.340;2022-12-29T05:29:08;-1.78;76.85
74540;SHT31;66042;51.090;-115.340;2022-12-29T05:31:35;-1.79;76.89
74540;SHT31;66042;51.090;-115.340;2022-12-29T05:34:02;-1.77;76.96
74540;SHT31;66042;51.090;-115.340;2022-12-29T05:36:29;-1.76;76.90
74540;SHT31;66042;51.090;-115.340;2022-12-29T05:38:57;-1.77;76.84
74540;SHT31;66042;51.090;-115.340;2022-12-29T05:41:24;-1.79;76.81
74540;SHT31;66042;51.090;-115.340;2022-12-29T05:43:51;-1.81;76.76
74540;SHT31;66042;51.090;-115.340;2022-12-29T05:46:18;-1.83;76.94
74540;SHT31;66042;51.090;-115.340;2022-12-29T05:48:45;-1.85;76.83
74540;SHT31;66042;51.090;-115.340;2022-12-29T05:51:12;-1.88;76.87
74540;SHT31;66042;51.090;-115.340;2022-12-29T05:53:39;-1.91;76.95
74540;SHT31;66042;51.090;-115.340;2022-12-29T05:56:06;-1.95;77.16
74540;SHT31;66042;51.090;-115.340;2022-12-29T05:58:33;-1.99;77.24
74540;SHT31;66042;51.090;-115.340;2022-12-29T06:01:00;-2.04;77.23
74540;SHT31;66042;51.090;-115.340;2022-12-29T06:03:27;-2.09;77.35
74540;SHT31;66042;51.090;-115.340;2022-12-29T06:05:54;-2.11;77.38
74540;SHT31;66042;51.090;-115.340;2022-12-29T06:08:20;-2.16;77.42
74540;SHT31;66042;51.090;-115.340;2022-12-29T06:10:47;-2.17;77.59
74540;SHT31;66042;51.090;-115.340;2022-12-29T06:13:16;-2.15;77.67
74540;SHT31;66042;51.090;-115.340;2022-12-29T06:15:43;-2.12;77.55
74540;SHT31;66042;51.090;-115.340;2022-12-29T06:18:09;-2.12;77.37
74540;SHT31;66042;51.090;-115.340;2022-12-29T06:20:37;-2.15;77.28
74540;SHT31;66042;51.090;-115.340;2022-12-29T06:23:03;-2.13;77.33
74540;SHT31;66042;51.090;-115.340;2022-12-29T06:25:30;-2.09;77.31
74540;SHT31;66042;51.090;-115.340;2022-12-29T06:27:58;-2.06;77.22
74540;SHT31;66042;51.090;-115.340;2022-12-29T06:30:26;-2.06;77.28
74540;SHT31;66042;51.090;-115.340;2022-12-29T06:32:53;-2.08;77.21
74540;SHT31;66042;51.090;-115.340;2022-12-29T06:35:20;-2.10;77.20
74540;SHT31;66042;51.090;-115.340;2022-12-29T06:37:50;-2.13;77.37
74540;SHT31;66042;51.090;-115.340;2022-12-29T06:40:17;-2.15;77.44
74540;SHT31;66042;51.090;-115.340;2022-12-29T06:42:43;-2.18;77.40
74540;SHT31;66042;51.090;-115.340;2022-12-29T06:45:11;-2.22;77.48
74540;SHT31;66042;51.090;-115.340;2022-12-29T06:47:37;-2.25;77.66
74540;SHT31;66042;51.090;-115.340;2022-12-29T06:50:05;-2.30;77.68
74540;SHT31;66042;51.090;-115.340;2022-12-29T06:52:32;-2.38;77.95
74540;SHT31;66042;51.090;-115.340;2022-12-29T06:54:59;-2.39;77.96
74540;SHT31;66042;51.090;-115.340;2022-12-29T06:57:25;-2.42;77.80
74540;SHT31;66042;51.090;-115.340;2022-12-29T06:59:52;-2.41;77.54
74540;SHT31;66042;51.090;-115.340;2022-12-29T07:02:22;-2.39;77.58
74540;SHT31;66042;51.090;-115.340;2022-12-29T07:04:53;-2.39;77.74
74540;SHT31;66042;51.090;-115.340;2022-12-29T07:07:20;-2.38;77.70
74540;SHT31;66042;51.090;-115.340;2022-12-29T07:09:47;-2.36;77.63
74540;SHT31;66042;51.090;-115.340;2022-12-29T07:12:14;-2.37;77.60
74540;SHT31;66042;51.090;-115.340;2022-12-29T07:14:41;-2.38;77.79
74540;SHT31;66042;51.090;-115.340;2022-12-29T07:17:08;-2.41;77.70
74540;SHT31;66042;51.090;-115.340;2022-12-29T07:19:35;-2.45;77.71
74540;SHT31;66042;51.090;-115.340;2022-12-29T07:22:02;-2.51;77.72
74540;SHT31;66042;51.090;-115.340;2022-12-29T07:24:29;-2.58;77.51
74540;SHT31;66042;51.090;-115.340;2022-12-29T07:26:56;-2.66;77.64
74540;SHT31;66042;51.090;-115.340;2022-12-29T07:29:23;-2.71;77.89
74540;SHT31;66042;51.090;-115.340;2022-12-29T07:31:50;-2.74;77.86
74540;SHT31;66042;51.090;-115.340;2022-12-29T07:34:17;-2.82;77.85
74540;SHT31;66042;51.090;-115.340;2022-12-29T07:36:44;-2.87;78.15
74540;SHT31;66042;51.090;-115.340;2022-12-29T07:39:12;-2.92;78.40
74540;SHT31;66042;51.090;-115.340;2022-12-29T07:41:38;-2.97;78.33
74540;SHT31;66042;51.090;-115.340;2022-12-29T07:44:08;-2.99;78.34
74540;SHT31;66042;51.090;-115.340;2022-12-29T07:46:35;-2.99;78.48
74540;SHT31;66042;51.090;-115.340;2022-12-29T07:49:02;-2.97;78.44
74540;SHT31;66042;51.090;-115.340;2022-12-29T07:51:29;-2.97;78.36
74540;SHT31;66042;51.090;-115.340;2022-12-29T07:53:57;-3.02;78.32
74540;SHT31;66042;51.090;-115.340;2022-12-29T07:56:25;-3.01;78.52
74540;SHT31;66042;51.090;-115.340;2022-12-29T07:58:52;-2.96;78.50
74540;SHT31;66042;51.090;-115.340;2022-12-29T08:01:19;-2.96;78.25
74540;SHT31;66042;51.090;-115.340;2022-12-29T08:03:48;-3.00;78.35
74540;SHT31;66042;51.090;-115.340;2022-12-29T08:06:15;-3.00;78.39
74540;SHT31;66042;51.090;-115.340;2022-12-29T08:08:44;-3.00;78.41
74540;SHT31;66042;51.090;-115.340;2022-12-29T08:11:11;-3.01;78.37
74540;SHT31;66042;51.090;-115.340;2022-12-29T08:13:38;-3.04;78.36
74540;SHT31;66042;51.090;-115.340;2022-12-29T08:16:05;-3.08;78.48
74540;SHT31;66042;51.090;-115.340;2022-12-29T08:18:32;-3.11;78.32
74540;SHT31;66042;51.090;-115.340;2022-12-29T08:21:03;-3.16;78.45
74540;SHT31;66042;51.090;-115.340;2022-12-29T08:23:32;-3.17;78.48
74540;SHT31;66042;51.090;-115.340;2022-12-29T08:25:59;-3.24;78.47
74540;SHT31;66042;51.090;-115.340;2022-12-29T08:28:29;-3.28;78.62
74540;SHT31;66042;51.090;-115.340;2022-12-29T08:30:57;-3.28;78.60
74540;SHT31;66042;51.090;-115.340;2022-12-29T08:33:27;-3.31;78.53
74540;SHT31;66042;51.090;-115.340;2022-12-29T08:36:01;-3.34;78.74
74540;SHT31;66042;51.090;-115.340;2022-12-29T08:38:31;-3.31;78.71
74540;SHT31;66042;51.090;-115.340;2022-12-29T08:40:58;-3.28;78.31
74540;SHT31;66042;51.090;-115.340;2022-12-29T08:43:29;-3.30;78.28
74540;SHT31;66042;51.090;-115.340;2022-12-29T08:45:59;-3.26;78.57
74540;SHT31;66042;51.090;-115.340;2022-12-29T08:48:27;-3.19;78.45
74540;SHT31;66042;51.090;-115.340;2022-12-29T08:50:54;-3.19;78.38
74540;SHT31;66042;51.090;-115.340;2022-12-29T08:53:20;-3.17;78.44
74540;SHT31;66042;51.090;-115.340;2022-12-29T08:55:53;-3.17;78.48
74540;SHT31;66042;51.090;-115.340;2022-12-29T08:58:26;-3.17;78.34
74540;SHT31;66042;51.090;-115.340;2022-12-29T09:00:54;-3.18;78.34
74540;SHT31;66042;51.090;-115.340;2022-12-29T09:03:22;-3.18;78.43
74540;SHT31;66042;51.090;-115.340;2022-12-29T09:05:51;-3.20;78.49
74540;SHT31;66042;51.090;-115.340;2022-12-29T09:08:20;-3.25;78.53
74540;SHT31;66042;51.090;-115.340;2022-12-29T09:10:49;-3.29;78.66
74540;SHT31;66042;51.090;-115.340;2022-12-29T09:13:17;-3.31;78.77
74540;SHT31;66042;51.090;-115.340;2022-12-29T09:15:45;-3.35;78.84
74540;SHT31;66042;51.090;-115.340;2022-12-29T09:18:11;-3.39;78.75
74540;SHT31;66042;51.090;-115.340;2022-12-29T09:20:39;-3.47;78.64
74540;SHT31;66042;51.090;-115.340;2022-12-29T09:23:06;-3.56;78.79
74540;SHT31;66042;51.090;-115.340;2022-12-29T09:25:34;-3.63;78.94
74540;SHT31;66042;51.090;-115.340;2022-12-29T09:28:01;-3.66;79.10
74540;SHT31;66042;51.090;-115.340;2022-12-29T09:30:32;-3.70;79.21
74540;SHT31;66042;51.090;-115.340;2022-12-29T09:32:59;-3.70;79.30
74540;SHT31;66042;51.090;-115.340;2022-12-29T09:35:27;-3.68;79.27
74540;SHT31;66042;51.090;-115.340;2022-12-29T09:37:54;-3.66;79.31
74540;SHT31;66042;51.090;-115.340;2022-12-29T09:40:25;-3.63;79.30
74540;SHT31;66042;51.090;-115.340;2022-12-29T09:46:27;-3.60;79.39
74540;SHT31;66042;51.090;-115.340;2022-12-29T09:51:54;-3.58;79.35
74540;SHT31;66042;51.090;-115.340;2022-12-29T09:54:36;-3.61;79.24
74540;SHT31;66042;51.090;-115.340;2022-12-29T10:00:16;-3.68;79.05
74540;SHT31;66042;51.090;-115.340;2022-12-29T10:02:51;-3.70;79.07
74540;SHT31;66042;51.090;-115.340;2022-12-29T10:11:06;-3.75;79.14
74540;SHT31;66042;51.090;-115.340;2022-12-29T10:20:02;-3.79;79.66
74540;SHT31;66042;51.090;-115.340;2022-12-29T10:25:19;-3.80;79.65
74540;SHT31;66042;51.090;-115.340;2022-12-29T10:27:53;-3.78;79.67
74540;SHT31;66042;51.090;-115.340;2022-12-29T10:30:24;-3.75;79.63
74540;SHT31;66042;51.090;-115.340;2022-12-29T10:35:34;-3.72;79.52
74540;SHT31;66042;51.090;-115.340;2022-12-29T10:38:25;-3.67;79.50
74540;SHT31;66042;51.090;-115.340;2022-12-29T10:43:54;-3.67;79.17
74540;SHT31;66042;51.090;-115.340;2022-12-29T10:46:25;-3.67;79.27
74540;SHT31;66042;51.090;-115.340;2022-12-29T10:48:59;-3.68;79.26
74540;SHT31;66042;51.090;-115.340;2022-12-29T10:51:31;-3.69;79.31
74540;SHT31;66042;51.090;-115.340;2022-12-29T10:54:05;-3.71;79.54
74540;SHT31;66042;51.090;-115.340;2022-12-29T11:00:15;-3.82;79.59
74540;SHT31;66042;51.090;-115.340;2022-12-29T11:02:49;-3.84;79.70
74540;SHT31;66042;51.090;-115.340;2022-12-29T11:06:06;-3.88;79.76
74540;SHT31;66042;51.090;-115.340;2022-12-29T11:08:51;-3.90;79.88
74540;SHT31;66042;51.090;-115.340;2022-12-29T11:11:47;-3.91;79.85
74540;SHT31;66042;51.090;-115.340;2022-12-29T11:14:17;-3.93;79.92
74540;SHT31;66042;51.090;-115.340;2022-12-29T11:16:58;-3.93;80.05
74540;SHT31;66042;51.090;-115.340;2022-12-29T11:19:31;-3.90;80.00
74540;SHT31;66042;51.090;-115.340;2022-12-29T11:25:11;-3.83;79.86
74540;SHT31;66042;51.090;-115.340;2022-12-29T11:27:39;-3.75;79.82
74540;SHT31;66042;51.090;-115.340;2022-12-29T11:30:39;-3.66;79.78
74540;SHT31;66042;51.090;-115.340;2022-12-29T11:33:08;-3.57;79.59
74540;SHT31;66042;51.090;-115.340;2022-12-29T11:35:37;-3.51;79.32
74540;SHT31;66042;51.090;-115.340;2022-12-29T11:38:18;-3.49;79.23
74540;SHT31;66042;51.090;-115.340;2022-12-29T11:40:51;-3.46;79.12
74540;SHT31;66042;51.090;-115.340;2022-12-29T11:46:04;-3.45;78.98
74540;SHT31;66042;51.090;-115.340;2022-12-29T11:48:33;-3.46;78.95
74540;SHT31;66042;51.090;-115.340;2022-12-29T11:51:06;-3.48;78.90
74540;SHT31;66042;51.090;-115.340;2022-12-29T11:53:49;-3.50;79.09
74540;SHT31;66042;51.090;-115.340;2022-12-29T11:56:35;-3.54;79.30
74540;SHT31;66042;51.090;-115.340;2022-12-29T12:01:56;-3.54;79.30
74540;SHT31;66042;51.090;-115.340;2022-12-29T12:04:26;-3.58;79.33
74540;SHT31;66042;51.090;-115.340;2022-12-29T12:07:22;-3.62;79.41
74540;SHT31;66042;51.090;-115.340;2022-12-29T12:10:42;-3.69;79.54
74540;SHT31;66042;51.090;-115.340;2022-12-29T12:16:54;-3.78;79.74
74540;SHT31;66042;51.090;-115.340;2022-12-29T12:25:45;-3.84;79.89
74540;SHT31;66042;51.090;-115.340;2022-12-29T12:29:07;-3.84;79.80
74540;SHT31;66042;51.090;-115.340;2022-12-29T12:34:38;-3.82;79.69
74540;SHT31;66042;51.090;-115.340;2022-12-29T12:40:56;-3.76;79.50
74540;SHT31;66042;51.090;-115.340;2022-12-29T12:44:16;-3.76;79.50
74540;SHT31;66042;51.090;-115.340;2022-12-29T12:47:04;-3.76;79.49
74540;SHT31;66042;51.090;-115.340;2022-12-29T13:04:02;-3.98;79.56
74540;SHT31;66042;51.090;-115.340;2022-12-29T13:16:45;-4.13;79.82
74540;SHT31;66042;51.090;-115.340;2022-12-29T13:25:23;-4.19;79.97
74540;SHT31;66042;51.090;-115.340;2022-12-29T13:36:51;-4.21;80.23
74540;SHT31;66042;51.090;-115.340;2022-12-29T13:42:13;-4.17;80.00
74540;SHT31;66042;51.090;-115.340;2022-12-29T13:47:33;-4.07;79.92
74540;SHT31;66042;51.090;-115.340;2022-12-29T13:50:18;-4.01;79.84
74540;SHT31;66042;51.090;-115.340;2022-12-29T13:53:03;-4.00;79.70
74540;SHT31;66042;51.090;-115.340;2022-12-29T13:58:54;-4.01;79.68
74540;SHT31;66042;51.090;-115.340;2022-12-29T14:04:21;-4.04;79.74
74540;SHT31;66042;51.090;-115.340;2022-12-29T14:07:02;-4.08;79.73
74540;SHT31;66042;51.090;-115.340;2022-12-29T14:09:49;-4.09;79.80
74540;SHT31;66042;51.090;-115.340;2022-12-29T14:17:39;-4.18;79.99
74540;SHT31;66042;51.090;-115.340;2022-12-29T14:20:17;-4.19;79.90
74540;SHT31;66042;51.090;-115.340;2022-12-29T14:30:54;-4.40;80.33
74540;SHT31;66042;51.090;-115.340;2022-12-29T14:33:27;-4.45;80.35
74540;SHT31;66042;51.090;-115.340;2022-12-29T14:36:21;-4.50;80.40
74540;SHT31;66042;51.090;-115.340;2022-12-29T14:38:52;-4.54;80.32
74540;SHT31;66042;51.090;-115.340;2022-12-29T14:41:38;-4.55;80.30
74540;SHT31;66042;51.090;-115.340;2022-12-29T14:44:17;-4.54;80.28
74540;SHT31;66042;51.090;-115.340;2022-12-29T14:46:48;-4.53;80.19
74540;SHT31;66042;51.090;-115.340;2022-12-29T14:49:25;-4.51;80.08
74540;SHT31;66042;51.090;-115.340;2022-12-29T14:57:44;-4.39;79.70
74540;SHT31;66042;51.090;-115.340;2022-12-29T15:02:59;-4.41;79.54
74540;SHT31;66042;51.090;-115.340;2022-12-29T15:05:43;-4.41;79.59
74540;SHT31;66042;51.090;-115.340;2022-12-29T15:08:28;-4.44;79.44
74540;SHT31;66042;51.090;-115.340;2022-12-29T15:11:04;-4.48;79.46
74540;SHT31;66042;51.090;-115.340;2022-12-29T15:17:09;-4.56;79.51
74540;SHT31;66042;51.090;-115.340;2022-12-29T15:19:53;-4.60;79.63
74540;SHT31;66042;51.090;-115.340;2022-12-29T15:22:22;-4.65;79.70
74540;SHT31;66042;51.090;-115.340;2022-12-29T15:24:50;-4.71;79.80
74540;SHT31;66042;51.090;-115.340;2022-12-29T15:27:21;-4.75;79.90
74540;SHT31;66042;51.090;-115.340;2022-12-29T15:29:58;-4.80;79.99
74540;SHT31;66042;51.090;-115.340;2022-12-29T15:32:42;-4.85;80.04
74540;SHT31;66042;51.090;-115.340;2022-12-29T15:35:25;-4.90;79.97
74540;SHT31;66042;51.090;-115.340;2022-12-29T15:38:12;-4.93;80.04
74540;SHT31;66042;51.090;-115.340;2022-12-29T15:40:45;-4.98;80.01
74540;SHT31;66042;51.090;-115.340;2022-12-29T15:46:06;-4.98;80.20
74540;SHT31;66042;51.090;-115.340;2022-12-29T15:48:36;-4.97;79.97
74540;SHT31;66042;51.090;-115.340;2022-12-29T15:51:15;-4.97;79.78
74540;SHT31;66042;51.090;-115.340;2022-12-29T15:53:50;-4.98;79.32
74540;SHT31;66042;51.090;-115.340;2022-12-29T15:56:18;-4.97;79.38
74540;SHT31;66042;51.090;-115.340;2022-12-29T15:58:47;-4.93;79.35
74540;SHT31;66042;51.090;-115.340;2022-12-29T16:03:59;-4.91;79.15
74540;SHT31;66042;51.090;-115.340;2022-12-29T16:06:39;-4.89;78.99
74540;SHT31;66042;51.090;-115.340;2022-12-29T16:09:31;-4.91;78.90
74540;SHT31;66042;51.090;-115.340;2022-12-29T16:12:19;-4.92;78.81
74540;SHT31;66042;51.090;-115.340;2022-12-29T16:14:53;-4.94;78.93
74540;SHT31;66042;51.090;-115.340;2022-12-29T16:17:29;-4.96;78.90
74540;SHT31;66042;51.090;-115.340;2022-12-29T16:20:22;-4.95;79.04
74540;SHT31;66042;51.090;-115.340;2022-12-29T16:22:58;-5.03;78.89
74540;SHT31;66042;51.090;-115.340;2022-12-29T16:25:30;-5.07;78.83
74540;SHT31;66042;51.090;-115.340;2022-12-29T16:28:02;-5.12;78.92
74540;SHT31;66042;51.090;-115.340;2022-12-29T16:30:59;-5.17;79.04
74540;SHT31;66042;51.090;-115.340;2022-12-29T16:33:48;-5.19;79.13
74540;SHT31;66042;51.090;-115.340;2022-12-29T16:36:25;-5.22;79.20
74540;SHT31;66042;51.090;-115.340;2022-12-29T16:42:32;-5.26;79.30
74540;SHT31;66042;51.090;-115.340;2022-12-29T16:45:23;-5.28;79.37
74540;SHT31;66042;51.090;-115.340;2022-12-29T16:50:47;-5.32;79.64
74540;SHT31;66042;51.090;-115.340;2022-12-29T16:53:24;-5.29;79.80
74540;SHT31;66042;51.090;-115.340;2022-12-29T16:55:55;-5.22;79.92
74540;SHT31;66042;51.090;-115.340;2022-12-29T16:58:30;-5.16;79.85
74540;SHT31;66042;51.090;-115.340;2022-12-29T17:01:00;-5.05;79.85
74540;SHT31;66042;51.090;-115.340;2022-12-29T17:03:41;-4.93;79.67
74540;SHT31;66042;51.090;-115.340;2022-12-29T17:06:18;-4.82;79.49
74540;SHT31;66042;51.090;-115.340;2022-12-29T17:08:48;-4.72;79.22
74540;SHT31;66042;51.090;-115.340;2022-12-29T17:14:25;-4.54;78.81
74540;SHT31;66042;51.090;-115.340;2022-12-29T17:17:45;-4.43;78.68
74540;SHT31;66042;51.090;-115.340;2022-12-29T17:20:22;-4.30;78.42
74540;SHT31;66042;51.090;-115.340;2022-12-29T17:22:52;-4.19;78.28
74540;SHT31;66042;51.090;-115.340;2022-12-29T17:25:23;-4.12;78.02
74540;SHT31;66042;51.090;-115.340;2022-12-29T17:27:58;-4.05;77.80
74540;SHT31;66042;51.090;-115.340;2022-12-29T17:30:28;-3.97;77.79
74540;SHT31;66042;51.090;-115.340;2022-12-29T17:33:00;-3.88;77.83
74540;SHT31;66042;51.090;-115.340;2022-12-29T17:35:35;-3.83;77.57
74540;SHT31;66042;51.090;-115.340;2022-12-29T17:38:17;-3.79;77.44
74540;SHT31;66042;51.090;-115.340;2022-12-29T17:40:52;-3.76;77.22
74540;SHT31;66042;51.090;-115.340;2022-12-29T17:43:20;-3.75;77.26
74540;SHT31;66042;51.090;-115.340;2022-12-29T17:45:48;-3.73;77.28
74540;SHT31;66042;51.090;-115.340;2022-12-29T17:48:21;-3.68;77.20
74540;SHT31;66042;51.090;-115.340;2022-12-29T17:50:50;-3.63;77.09
74540;SHT31;66042;51.090;-115.340;2022-12-29T17:53:20;-3.61;77.00
74540;SHT31;66042;51.090;-115.340;2022-12-29T17:55:51;-3.61;76.93
74540;SHT31;66042;51.090;-115.340;2022-12-29T18:00:54;-3.63;77.00
74540;SHT31;66042;51.090;-115.340;2022-12-29T18:03:27;-3.64;77.04
74540;SHT31;66042;51.090;-115.340;2022-12-29T18:06:00;-3.65;77.16
74540;SHT31;66042;51.090;-115.340;2022-12-29T18:08:31;-3.63;77.23
74540;SHT31;66042;51.090;-115.340;2022-12-29T18:10:59;-3.60;77.25
74540;SHT31;66042;51.090;-115.340;2022-12-29T18:13:28;-3.50;77.36
74540;SHT31;66042;51.090;-115.340;2022-12-29T18:15:59;-3.42;77.15
74540;SHT31;66042;51.090;-115.340;2022-12-29T18:18:26;-3.36;77.06
74540;SHT31;66042;51.090;-115.340;2022-12-29T18:20:53;-3.32;76.97
74540;SHT31;66042;51.090;-115.340;2022-12-29T18:23:28;-3.26;76.87
74540;SHT31;66042;51.090;-115.340;2022-12-29T18:28:31;-3.11;76.53
74540;SHT31;66042;51.090;-115.340;2022-12-29T18:30:59;-3.02;76.31
74540;SHT31;66042;51.090;-115.340;2022-12-29T18:33:28;-2.96;76.05